Time;durP1;ratioP1;P1;durP2;ratioP2;P2;SDS_P1;SDS_P2;PMS_P1;PMS_P2;Temp;Humidity;BMP_temperature;BMP_pressure;BME280_temperature;BME280_humidity;BME280_pressure;Samples;Min_cycle;Max_cycle;Signal;HPM_P1;HPM_P2
2024/01/31 00:01:39;;;;;;;1.08;1.08;;;3.10;99.90;;;;;;4944061;28;20214;-79
2024/01/31 00:04:06;;;;;;;3.25;2.92;;;3.20;99.90;;;;;;4953238;28;20206;-78
2024/01/31 00:06:33;;;;;;;4.05;3.70;;;3.20;99.90;;;;;;4953382;28;20223;-80
2024/01/31 00:09:01;;;;;;;1.73;1.40;;;3.20;99.90;;;;;;4952967;28;20207;-78
2024/01/31 00:11:30;;;;;;;3.97;2.70;;;3.40;99.90;;;;;;4949929;28;20239;-80
2024/01/31 00:13:58;;;;;;;1.63;1.52;;;3.40;99.90;;;;;;4955865;28;20242;-80
2024/01/31 00:16:25;;;;;;;3.40;3.20;;;3.40;99.90;;;;;;4952741;28;20256;-79
2024/01/31 00:18:52;;;;;;;3.38;3.17;;;3.40;99.90;;;;;;4962214;28;20202;-80
2024/01/31 00:21:19;;;;;;;2.13;1.88;;;3.40;99.90;;;;;;4948269;28;20206;-79
2024/01/31 00:23:46;;;;;;;6.53;1.80;;;3.50;99.90;;;;;;4955021;28;20266;-78
2024/01/31 00:26:14;;;;;;;1.45;1.35;;;3.40;99.90;;;;;;4951283;28;20204;-79
2024/01/31 00:28:41;;;;;;;1.35;1.35;;;3.50;99.90;;;;;;4962976;28;20207;-79
2024/01/31 00:31:11;;;;;;;1.35;1.35;;;3.50;99.90;;;;;;4956961;28;20212;-78
2024/01/31 00:33:39;;;;;;;2.00;1.85;;;3.50;99.90;;;;;;4942942;28;20233;-81
2024/01/31 00:36:06;;;;;;;2.80;2.70;;;3.60;99.90;;;;;;4948464;28;20259;-79
2024/01/31 00:38:33;;;;;;;1.00;0.90;;;3.60;99.90;;;;;;4951653;28;20204;-80
2024/01/31 00:41:00;;;;;;;1.08;1.08;;;3.50;99.90;;;;;;4956975;28;20270;-79
2024/01/31 00:43:27;;;;;;;1.63;1.52;;;3.50;99.90;;;;;;4958237;28;20231;-79
2024/01/31 00:45:54;;;;;;;1.35;1.35;;;3.50;99.90;;;;;;4955449;28;20200;-79
2024/01/31 00:48:21;;;;;;;1.50;1.50;;;3.50;99.90;;;;;;4944542;28;20211;-84
2024/01/31 00:50:48;;;;;;;1.98;1.88;;;3.40;99.90;;;;;;4962848;28;20715;-79
2024/01/31 00:53:15;;;;;;;2.90;2.42;;;3.50;99.90;;;;;;4954821;28;20311;-79
2024/01/31 00:55:44;;;;;;;3.08;2.22;;;3.50;99.90;;;;;;4958839;28;20447;-78
2024/01/31 00:58:11;;;;;;;0.98;0.98;;;3.50;99.90;;;;;;4956560;28;20211;-79
2024/01/31 01:00:38;;;;;;;0.93;0.93;;;3.50;99.90;;;;;;4951690;28;20496;-80
2024/01/31 01:03:05;;;;;;;2.45;2.35;;;3.40;99.90;;;;;;4968299;28;20214;-80
2024/01/31 01:05:32;;;;;;;2.15;1.95;;;3.40;99.90;;;;;;4952679;28;20212;-79
2024/01/31 01:08:00;;;;;;;2.85;2.75;;;3.40;99.90;;;;;;4949396;28;20282;-79
2024/01/31 01:10:28;;;;;;;1.30;1.30;;;3.60;99.90;;;;;;4952437;28;20242;-78
2024/01/31 01:12:56;;;;;;;1.20;1.20;;;3.70;99.90;;;;;;4949548;28;20486;-82
2024/01/31 01:15:23;;;;;;;1.45;1.45;;;3.80;99.90;;;;;;4950724;28;20211;-79
2024/01/31 01:17:50;;;;;;;1.38;1.27;;;3.90;99.90;;;;;;4947631;28;20273;-83
2024/01/31 01:20:17;;;;;;;2.28;2.17;;;3.90;99.90;;;;;;4962610;28;20266;-78
2024/01/31 01:22:45;;;;;;;0.98;0.98;;;4.00;99.90;;;;;;4954158;28;20340;-80
2024/01/31 01:25:12;;;;;;;2.15;2.05;;;4.00;99.90;;;;;;4932340;29;20207;-79
2024/01/31 01:27:39;;;;;;;2.83;2.63;;;4.00;99.90;;;;;;4943403;28;20203;-79
2024/01/31 01:30:07;;;;;;;1.55;1.48;;;4.10;99.90;;;;;;4934325;29;20203;-80
2024/01/31 01:32:34;;;;;;;1.98;1.85;;;4.10;99.90;;;;;;4955344;28;20299;-79
2024/01/31 01:35:02;;;;;;;3.42;2.33;;;4.20;99.90;;;;;;4954574;28;20238;-80
2024/01/31 01:37:29;;;;;;;3.85;3.65;;;4.30;99.90;;;;;;4961919;28;20274;-80
2024/01/31 01:39:56;;;;;;;4.32;2.70;;;4.20;99.90;;;;;;4952333;28;20484;-81
2024/01/31 01:42:23;;;;;;;4.15;3.78;;;4.30;99.90;;;;;;4959029;28;20282;-83
2024/01/31 01:44:51;;;;;;;20.85;3.03;;;4.30;99.90;;;;;;4965250;28;20254;-80
2024/01/31 01:47:19;;;;;;;0.90;0.90;;;4.30;99.90;;;;;;4973032;28;20286;-80
2024/01/31 01:49:47;;;;;;;0.60;0.60;;;4.30;99.90;;;;;;4960291;28;20263;-78
2024/01/31 01:52:15;;;;;;;2.50;2.35;;;4.40;99.90;;;;;;4974950;28;20539;-81
2024/01/31 01:54:44;;;;;;;3.42;3.22;;;4.40;99.90;;;;;;4969881;28;20264;-79
2024/01/31 01:57:11;;;;;;;3.00;2.70;;;4.40;99.90;;;;;;4964656;28;20296;-80
2024/01/31 01:59:38;;;;;;;1.90;1.80;;;4.40;99.90;;;;;;4958714;28;20275;-83
2024/01/31 02:02:06;;;;;;;2.00;1.52;;;4.40;99.90;;;;;;4955961;28;20450;-81
2024/01/31 02:04:34;;;;;;;1.98;1.90;;;4.40;99.90;;;;;;4958323;28;20211;-80
2024/01/31 02:07:01;;;;;;;1.83;1.73;;;4.40;99.90;;;;;;4958772;28;20204;-81
2024/01/31 02:09:28;;;;;;;1.27;1.27;;;4.40;99.90;;;;;;4978567;28;20192;-86
2024/01/31 02:11:55;;;;;;;1.02;0.93;;;4.50;99.90;;;;;;4969473;28;20265;-80
2024/01/31 02:14:22;;;;;;;0.88;0.88;;;4.50;99.90;;;;;;4940125;29;20243;-78
2024/01/31 02:16:49;;;;;;;1.77;1.35;;;4.50;99.90;;;;;;4973592;28;20198;-78
2024/01/31 02:19:16;;;;;;;2.08;1.98;;;4.50;99.90;;;;;;4973545;28;20227;-81
2024/01/31 02:21:44;;;;;;;0.70;0.70;;;4.50;99.90;;;;;;4952955;29;20211;-80
2024/01/31 02:24:11;;;;;;;1.10;1.10;;;4.50;99.90;;;;;;4950460;29;20263;-78
2024/01/31 02:26:38;;;;;;;0.60;0.60;;;4.50;99.90;;;;;;4964069;28;20240;-79
2024/01/31 02:29:05;;;;;;;1.42;1.42;;;4.50;99.90;;;;;;4964211;28;20227;-78
2024/01/31 02:31:32;;;;;;;1.15;1.15;;;4.50;99.90;;;;;;4965698;28;20204;-79
2024/01/31 02:33:59;;;;;;;3.45;3.25;;;4.60;99.90;;;;;;4968959;28;20229;-79
2024/01/31 02:36:27;;;;;;;2.35;2.25;;;4.60;99.90;;;;;;4947831;28;20201;-80
2024/01/31 02:38:53;;;;;;;1.75;1.75;;;4.60;99.90;;;;;;4953620;28;20199;-79
2024/01/31 02:41:20;;;;;;;4.82;4.40;;;4.70;99.90;;;;;;4969730;28;20211;-82
2024/01/31 02:43:48;;;;;;;1.35;1.35;;;4.80;99.90;;;;;;4961528;28;20235;-80
2024/01/31 02:46:15;;;;;;;1.00;1.00;;;4.80;99.90;;;;;;4945263;28;20204;-81
2024/01/31 02:48:42;;;;;;;1.45;1.45;;;4.70;99.90;;;;;;4959826;28;20278;-79
2024/01/31 02:51:09;;;;;;;1.40;1.40;;;4.70;99.90;;;;;;4957362;28;20205;-78
2024/01/31 02:53:36;;;;;;;3.80;3.55;;;4.80;99.90;;;;;;4954345;28;20292;-78
2024/01/31 02:56:03;;;;;;;5.03;4.72;;;4.80;99.90;;;;;;4957718;28;20208;-78
2024/01/31 02:58:30;;;;;;;2.63;2.53;;;4.80;99.90;;;;;;4960818;28;20789;-80
2024/01/31 03:00:58;;;;;;;1.73;1.70;;;4.80;99.90;;;;;;4956805;28;20217;-82
2024/01/31 03:03:25;;;;;;;1.25;1.25;;;4.80;99.90;;;;;;4950762;28;20208;-80
2024/01/31 03:05:52;;;;;;;0.60;0.60;;;4.80;99.90;;;;;;4959010;28;20204;-80
2024/01/31 03:08:19;;;;;;;0.82;0.82;;;4.70;99.90;;;;;;4939109;29;20402;-81
2024/01/31 03:10:46;;;;;;;0.50;0.50;;;4.70;99.90;;;;;;4980055;28;20279;-82
2024/01/31 03:13:14;;;;;;;0.60;0.60;;;4.60;99.90;;;;;;4963619;28;20237;-79
2024/01/31 03:15:41;;;;;;;1.33;1.33;;;4.70;99.90;;;;;;4949941;28;20260;-80
2024/01/31 03:18:08;;;;;;;3.55;3.35;;;4.70;99.90;;;;;;4954253;28;20618;-81
2024/01/31 03:20:35;;;;;;;1.45;1.45;;;4.70;99.90;;;;;;4950004;28;20206;-79
2024/01/31 03:23:02;;;;;;;0.60;0.60;;;4.60;99.90;;;;;;4961685;28;20208;-79
2024/01/31 03:25:29;;;;;;;1.42;1.30;;;4.60;99.90;;;;;;4969881;28;20479;-79
2024/01/31 03:27:56;;;;;;;1.70;1.60;;;4.60;99.90;;;;;;4954067;28;20214;-81
2024/01/31 03:30:23;;;;;;;2.00;1.92;;;4.50;99.90;;;;;;4958792;28;20205;-80
2024/01/31 03:32:50;;;;;;;2.67;2.58;;;4.50;99.90;;;;;;4952835;28;20544;-79
2024/01/31 03:35:17;;;;;;;3.35;3.25;;;4.60;99.90;;;;;;4959482;28;20204;-80
2024/01/31 03:37:44;;;;;;;0.52;0.52;;;4.60;99.90;;;;;;4958961;28;20272;-81
2024/01/31 03:40:11;;;;;;;2.15;2.05;;;4.60;99.90;;;;;;4946353;28;20366;-80
2024/01/31 03:42:38;;;;;;;1.77;1.67;;;4.50;99.90;;;;;;4949049;28;20208;-80
2024/01/31 03:45:05;;;;;;;1.23;1.23;;;4.50;99.90;;;;;;4950110;28;20242;-79
2024/01/31 03:47:34;;;;;;;2.58;2.45;;;4.50;99.90;;;;;;4948019;29;20555;-78
2024/01/31 03:50:04;;;;;;;0.95;0.73;;;4.60;99.90;;;;;;4952561;28;20208;-79
2024/01/31 03:52:31;;;;;;;0.50;0.50;;;4.60;99.90;;;;;;4958557;28;20227;-80
2024/01/31 03:54:58;;;;;;;0.70;0.70;;;4.60;99.90;;;;;;4949592;28;20204;-79
2024/01/31 03:57:25;;;;;;;1.95;1.55;;;4.70;99.90;;;;;;4959650;28;20399;-81
2024/01/31 03:59:52;;;;;;;1.50;1.50;;;4.70;99.90;;;;;;4950761;28;20212;-79
2024/01/31 04:02:19;;;;;;;2.25;2.15;;;4.70;99.90;;;;;;4934236;29;20239;-78
2024/01/31 04:04:46;;;;;;;1.92;1.83;;;4.80;99.90;;;;;;4954686;28;20212;-80
2024/01/31 04:07:13;;;;;;;0.93;0.93;;;4.80;99.90;;;;;;4955938;28;20211;-79
2024/01/31 04:09:40;;;;;;;0.80;0.80;;;4.80;99.90;;;;;;4941202;29;20211;-79
2024/01/31 04:12:07;;;;;;;3.90;2.35;;;4.80;99.90;;;;;;4949081;28;20677;-77
2024/01/31 04:14:34;;;;;;;2.10;2.00;;;4.70;99.90;;;;;;4955523;28;20293;-78
2024/01/31 04:17:01;;;;;;;0.93;0.93;;;4.80;99.90;;;;;;4961444;28;20240;-78
2024/01/31 04:19:28;;;;;;;1.08;1.08;;;4.90;99.90;;;;;;4955937;28;20464;-78
2024/01/31 04:21:55;;;;;;;1.42;1.42;;;4.90;99.90;;;;;;4946681;28;20255;-79
2024/01/31 04:24:22;;;;;;;1.40;1.40;;;4.90;99.90;;;;;;4947500;29;20235;-79
2024/01/31 04:26:49;;;;;;;3.22;3.03;;;4.90;99.90;;;;;;4948366;28;20272;-80
2024/01/31 04:29:16;;;;;;;0.50;0.50;;;4.90;99.90;;;;;;4972639;28;20241;-80
2024/01/31 04:31:43;;;;;;;1.08;1.08;;;4.90;99.90;;;;;;4961886;28;20206;-79
2024/01/31 04:34:10;;;;;;;0.63;0.63;;;4.90;99.90;;;;;;4953025;28;20224;-80
2024/01/31 04:36:38;;;;;;;2.83;1.30;;;4.90;99.90;;;;;;4949932;28;20203;-80
2024/01/31 04:39:05;;;;;;;1.77;1.67;;;5.00;99.90;;;;;;4960900;28;20276;-79
2024/01/31 04:41:31;;;;;;;1.42;1.42;;;5.00;99.90;;;;;;4970543;28;20211;-81
2024/01/31 04:44:01;;;;;;;2.97;2.78;;;5.00;99.90;;;;;;4969918;28;20205;-79
2024/01/31 04:46:28;;;;;;;4.78;4.57;;;5.00;99.90;;;;;;4947271;29;20268;-79
2024/01/31 04:48:55;;;;;;;1.13;1.13;;;5.00;99.90;;;;;;4956549;28;20551;-80
2024/01/31 04:51:22;;;;;;;2.55;2.47;;;5.10;99.90;;;;;;4952220;28;20256;-78
2024/01/31 04:53:49;;;;;;;0.82;0.82;;;5.10;99.90;;;;;;4956965;28;20232;-80
2024/01/31 04:56:18;;;;;;;0.73;0.73;;;5.20;99.90;;;;;;4945660;28;20230;-79
2024/01/31 04:58:45;;;;;;;1.70;1.70;;;5.10;99.90;;;;;;4962310;28;20321;-78
2024/01/31 05:01:12;;;;;;;5.75;3.45;;;5.10;99.90;;;;;;4963043;28;20201;-79
2024/01/31 05:03:39;;;;;;;0.65;0.65;;;5.10;99.90;;;;;;4961495;28;20284;-80
2024/01/31 05:06:06;;;;;;;1.23;1.23;;;5.00;99.90;;;;;;4951260;28;20216;-80
2024/01/31 05:08:33;;;;;;;2.15;2.08;;;5.20;99.90;;;;;;4932984;29;20225;-80
2024/01/31 05:11:00;;;;;;;2.03;1.92;;;5.10;99.90;;;;;;4938315;28;20217;-79
2024/01/31 05:13:27;;;;;;;1.50;1.50;;;5.10;99.90;;;;;;4960277;29;20238;-78
2024/01/31 05:15:54;;;;;;;2.55;2.35;;;5.10;99.90;;;;;;4972479;28;20258;-81
2024/01/31 05:18:21;;;;;;;1.77;1.67;;;5.20;99.90;;;;;;4977328;28;20204;-79
2024/01/31 05:20:48;;;;;;;1.50;1.50;;;5.10;99.90;;;;;;4968320;28;20202;-80
2024/01/31 05:23:15;;;;;;;4.57;3.75;;;5.10;99.90;;;;;;4975899;28;20200;-80
2024/01/31 05:25:45;;;;;;;1.20;1.17;;;5.10;99.90;;;;;;4961907;28;20209;-80
2024/01/31 05:28:12;;;;;;;1.20;1.20;;;5.20;99.90;;;;;;4971067;28;20216;-80
2024/01/31 05:30:39;;;;;;;2.03;1.95;;;5.20;99.90;;;;;;4940947;29;20296;-79
2024/01/31 05:33:06;;;;;;;0.90;0.90;;;5.20;99.90;;;;;;4953851;28;20279;-79
2024/01/31 05:35:35;;;;;;;1.70;1.70;;;5.10;99.90;;;;;;4967801;28;20390;-78
2024/01/31 05:38:03;;;;;;;1.15;1.15;;;5.20;99.90;;;;;;4964369;28;20232;-78
2024/01/31 05:40:31;;;;;;;3.25;1.42;;;5.20;99.90;;;;;;4968475;29;20279;-80
2024/01/31 05:42:58;;;;;;;2.15;2.05;;;5.20;99.90;;;;;;4964384;28;20211;-79
2024/01/31 05:45:27;;;;;;;2.17;2.08;;;5.20;99.90;;;;;;4951899;28;20277;-78
2024/01/31 05:47:53;;;;;;;2.15;2.05;;;5.20;99.90;;;;;;4958349;28;20236;-79
2024/01/31 05:50:21;;;;;;;0.93;0.93;;;5.20;99.90;;;;;;4953888;28;20527;-79
2024/01/31 05:52:48;;;;;;;0.55;0.55;;;5.20;99.90;;;;;;4949597;28;20214;-79
2024/01/31 05:55:15;;;;;;;2.55;2.45;;;5.20;99.90;;;;;;4954729;28;20225;-79
2024/01/31 05:57:46;;;;;;;1.95;1.85;;;5.20;99.90;;;;;;4964808;28;20203;-79
2024/01/31 06:00:14;;;;;;;0.98;0.98;;;5.20;99.90;;;;;;4956066;28;20215;-81
2024/01/31 06:02:41;;;;;;;0.90;0.90;;;5.20;99.90;;;;;;4955684;28;20256;-79
2024/01/31 06:05:08;;;;;;;2.60;2.30;;;5.20;99.90;;;;;;4959343;28;20207;-79
2024/01/31 06:07:35;;;;;;;0.98;0.98;;;5.20;99.90;;;;;;4957547;29;20231;-80
2024/01/31 06:10:03;;;;;;;0.60;0.60;;;5.30;99.90;;;;;;4966656;28;20199;-78
2024/01/31 06:12:30;;;;;;;1.58;1.50;;;5.30;99.90;;;;;;4962768;28;20551;-80
2024/01/31 06:14:57;;;;;;;1.25;1.25;;;5.30;99.90;;;;;;4958701;29;20301;-79
2024/01/31 06:17:24;;;;;;;1.52;1.50;;;5.30;99.90;;;;;;4970210;28;20416;-78
2024/01/31 06:19:51;;;;;;;1.65;1.55;;;5.30;99.90;;;;;;4966498;28;20200;-80
2024/01/31 06:22:18;;;;;;;0.60;0.60;;;5.30;99.90;;;;;;4968167;29;20217;-80
2024/01/31 06:24:45;;;;;;;1.70;1.70;;;5.40;99.90;;;;;;4972399;29;20220;-79
2024/01/31 06:27:13;;;;;;;1.75;1.65;;;5.40;99.90;;;;;;4950420;28;20436;-80
2024/01/31 06:29:40;;;;;;;0.73;0.73;;;5.40;99.90;;;;;;4974518;29;20233;-80
2024/01/31 06:32:07;;;;;;;2.28;2.17;;;5.40;99.90;;;;;;4957398;28;20265;-81
2024/01/31 06:34:34;;;;;;;2.35;2.08;;;5.30;99.90;;;;;;4959201;28;20239;-81
2024/01/31 06:37:02;;;;;;;3.33;3.17;;;5.40;99.90;;;;;;4967071;28;20206;-80
2024/01/31 06:39:29;;;;;;;1.55;1.52;;;5.40;99.90;;;;;;4949975;29;20232;-80
2024/01/31 06:41:55;;;;;;;0.85;0.85;;;5.40;99.90;;;;;;4959132;28;20231;-81
2024/01/31 06:44:22;;;;;;;1.20;1.10;;;5.40;99.90;;;;;;4936964;29;20208;-79
2024/01/31 06:46:50;;;;;;;1.10;1.10;;;5.40;99.90;;;;;;4966936;28;20273;-79
2024/01/31 06:49:17;;;;;;;2.40;2.20;;;5.40;99.90;;;;;;4976003;28;20212;-81
2024/01/31 06:51:44;;;;;;;1.17;1.17;;;5.40;99.90;;;;;;4975455;28;20240;-80
2024/01/31 06:54:12;;;;;;;3.40;3.20;;;5.40;99.90;;;;;;4960614;28;20238;-79
2024/01/31 06:56:39;;;;;;;2.38;2.28;;;5.50;99.90;;;;;;4969668;28;20210;-79
2024/01/31 06:59:07;;;;;;;0.98;0.98;;;5.60;99.90;;;;;;4956026;28;20468;-79
2024/01/31 07:01:34;;;;;;;1.05;1.05;;;5.50;99.90;;;;;;4947520;29;20215;-81
2024/01/31 07:04:01;;;;;;;1.65;1.02;;;5.50;99.90;;;;;;4960465;28;20215;-79
2024/01/31 07:06:28;;;;;;;3.05;1.92;;;5.50;99.90;;;;;;4956818;29;20224;-79
2024/01/31 07:08:57;;;;;;;1.45;1.45;;;5.50;99.90;;;;;;4987025;28;20204;-80
2024/01/31 07:11:24;;;;;;;1.55;1.45;;;5.50;99.90;;;;;;4952591;28;20224;-79
2024/01/31 07:13:50;;;;;;;2.30;2.20;;;5.50;99.90;;;;;;4962737;28;20229;-80
2024/01/31 07:16:18;;;;;;;6.10;4.93;;;5.60;99.90;;;;;;4937769;29;20247;-80
2024/01/31 07:18:45;;;;;;;1.27;1.27;;;5.50;99.90;;;;;;4946540;28;20212;-80
2024/01/31 07:21:23;;;;;;;1.85;1.75;;;5.50;99.90;;;;;;4961418;28;20202;-80
2024/01/31 07:23:51;;;;;;;2.90;2.53;;;5.50;99.90;;;;;;4940026;29;20235;-79
2024/01/31 07:26:23;;;;;;;1.40;1.40;;;5.40;99.90;;;;;;4961920;28;20276;-79
2024/01/31 07:28:50;;;;;;;1.90;1.80;;;5.50;99.90;;;;;;4963175;28;20235;-78
2024/01/31 07:31:18;;;;;;;3.67;3.50;;;5.60;99.90;;;;;;4958264;28;20220;-78
2024/01/31 07:33:45;;;;;;;2.60;2.50;;;5.60;99.90;;;;;;4939144;29;20229;-79
2024/01/31 07:36:13;;;;;;;2.05;1.95;;;5.60;99.90;;;;;;4961534;28;20199;-78
2024/01/31 07:38:43;;;;;;;0.90;0.90;;;5.60;99.90;;;;;;4957347;28;20244;-80
2024/01/31 07:41:11;;;;;;;1.52;1.50;;;5.60;99.90;;;;;;4956005;28;20207;-80
2024/01/31 07:43:38;;;;;;;2.25;1.95;;;5.60;99.90;;;;;;4952438;29;20660;-80
2024/01/31 07:46:11;;;;;;;1.45;1.38;;;5.60;99.90;;;;;;4953603;28;20748;-80
2024/01/31 07:48:38;;;;;;;2.83;1.90;;;5.70;99.90;;;;;;4954100;28;20213;-80
2024/01/31 07:51:05;;;;;;;6.80;3.75;;;5.70;99.90;;;;;;4952550;28;20205;-81
2024/01/31 07:53:33;;;;;;;3.00;2.80;;;5.80;99.90;;;;;;4951083;28;20292;-79
2024/01/31 07:56:00;;;;;;;1.55;1.45;;;5.70;99.90;;;;;;4957731;28;20233;-78
2024/01/31 07:58:31;;;;;;;2.97;2.78;;;5.70;99.90;;;;;;4962176;28;20357;-80
2024/01/31 08:01:00;;;;;;;1.05;1.05;;;5.80;99.90;;;;;;4954379;28;20210;-79
2024/01/31 08:03:27;;;;;;;1.63;1.52;;;5.80;99.90;;;;;;4937167;29;20203;-80
2024/01/31 08:05:54;;;;;;;1.38;1.38;;;5.80;99.90;;;;;;4955868;29;20203;-80
2024/01/31 08:08:21;;;;;;;1.23;1.23;;;5.80;99.90;;;;;;4958717;28;20249;-79
2024/01/31 08:10:48;;;;;;;1.45;1.45;;;5.90;99.90;;;;;;4962597;28;20208;-79
2024/01/31 08:13:16;;;;;;;0.60;0.60;;;6.00;99.90;;;;;;4955457;28;20230;-80
2024/01/31 08:15:43;;;;;;;1.27;1.27;;;6.00;99.90;;;;;;4934560;29;20301;-79
2024/01/31 08:18:10;;;;;;;1.02;1.02;;;6.10;99.90;;;;;;4946096;28;20267;-82
2024/01/31 08:20:37;;;;;;;2.80;2.70;;;6.10;99.90;;;;;;4956172;29;20383;-80
2024/01/31 08:23:04;;;;;;;2.35;2.15;;;6.00;99.90;;;;;;4949825;28;20207;-79
2024/01/31 08:25:32;;;;;;;4.53;4.13;;;6.00;99.90;;;;;;4952212;28;20208;-79
2024/01/31 08:27:59;;;;;;;1.45;1.45;;;6.00;99.90;;;;;;4940506;28;20199;-81
2024/01/31 08:30:27;;;;;;;1.33;1.30;;;6.10;99.90;;;;;;4958959;28;20212;-78
2024/01/31 08:32:54;;;;;;;1.42;1.42;;;6.10;99.90;;;;;;4953779;28;20531;-81
2024/01/31 08:35:21;;;;;;;3.33;3.10;;;6.30;99.90;;;;;;4952186;28;20231;-81
2024/01/31 08:37:48;;;;;;;3.05;2.70;;;6.40;99.90;;;;;;4951679;28;20207;-83
2024/01/31 08:40:15;;;;;;;1.05;1.05;;;6.70;99.90;;;;;;4959541;28;20257;-80
2024/01/31 08:42:46;;;;;;;1.95;1.85;;;6.90;99.90;;;;;;4947045;28;20245;-78
2024/01/31 08:45:13;;;;;;;2.58;2.08;;;7.20;99.90;;;;;;4946567;28;20253;-79
2024/01/31 08:47:41;;;;;;;3.15;2.95;;;7.40;99.90;;;;;;4951528;28;20518;-80
2024/01/31 08:50:09;;;;;;;1.50;1.48;;;7.30;99.90;;;;;;4968336;28;20209;-81
2024/01/31 08:52:37;;;;;;;2.55;2.45;;;7.20;99.90;;;;;;4984421;28;20228;-81
2024/01/31 08:55:08;;;;;;;1.77;1.73;;;7.20;99.90;;;;;;4960430;28;20222;-83
2024/01/31 08:57:35;;;;;;;2.50;2.35;;;7.20;99.90;;;;;;4943815;29;20295;-80
2024/01/31 09:00:05;;;;;;;3.08;2.85;;;7.30;99.90;;;;;;4957303;28;20199;-78
2024/01/31 09:02:32;;;;;;;4.40;4.10;;;7.30;99.90;;;;;;4962788;28;20203;-78
2024/01/31 09:04:59;;;;;;;2.65;2.55;;;7.40;99.90;;;;;;4958962;28;20250;-79
2024/01/31 09:07:28;;;;;;;1.95;1.88;;;7.50;99.90;;;;;;4932951;29;20266;-78
2024/01/31 09:09:54;;;;;;;0.82;0.82;;;7.70;99.90;;;;;;4959270;28;20204;-78
2024/01/31 09:12:21;;;;;;;8.38;7.63;;;7.60;99.90;;;;;;4944366;28;20294;-80
2024/01/31 09:14:49;;;;;;;2.88;2.67;;;7.50;99.90;;;;;;4952950;28;20586;-79
2024/01/31 09:17:15;;;;;;;1.60;1.50;;;8.60;99.90;;;;;;4956412;28;20211;-80
2024/01/31 09:19:42;;;;;;;1.10;1.10;;;8.10;99.90;;;;;;4961611;28;20211;-80
2024/01/31 09:22:13;;;;;;;2.35;2.20;;;7.80;99.90;;;;;;4957610;28;20234;-80
2024/01/31 09:24:40;;;;;;;2.63;2.53;;;7.80;99.90;;;;;;4959193;28;20203;-79
2024/01/31 09:27:07;;;;;;;2.60;2.40;;;7.40;99.90;;;;;;4956463;28;20214;-78
2024/01/31 09:29:34;;;;;;;5.20;3.47;;;7.40;99.90;;;;;;4947233;28;20204;-79
2024/01/31 09:32:02;;;;;;;1.98;1.90;;;7.70;99.90;;;;;;4962264;28;20206;-79
2024/01/31 09:34:30;;;;;;;4.75;4.28;;;7.70;99.90;;;;;;4944258;29;20230;-80
2024/01/31 09:36:57;;;;;;;1.13;1.13;;;8.00;99.90;;;;;;4958913;28;20239;-80
2024/01/31 09:39:25;;;;;;;1.73;1.63;;;8.10;99.90;;;;;;4951455;28;20204;-80
2024/01/31 09:41:53;;;;;;;1.85;1.67;;;8.20;99.90;;;;;;4958178;29;20203;-79
2024/01/31 09:44:21;;;;;;;3.40;2.95;;;8.20;99.90;;;;;;4957348;28;20214;-81
2024/01/31 09:46:51;;;;;;;1.40;1.40;;;8.00;99.90;;;;;;4964431;28;20237;-80
2024/01/31 09:49:18;;;;;;;1.65;1.60;;;8.00;99.90;;;;;;4968985;28;20241;-79
2024/01/31 09:51:45;;;;;;;2.38;1.85;;;8.10;99.90;;;;;;4955134;28;20209;-79
2024/01/31 09:54:13;;;;;;;0.77;0.77;;;8.40;99.90;;;;;;4949368;28;20270;-79
2024/01/31 09:56:41;;;;;;;2.63;2.53;;;8.50;99.90;;;;;;4950531;28;20255;-78
2024/01/31 09:59:09;;;;;;;1.55;1.55;;;8.70;99.90;;;;;;4954102;28;20533;-81
2024/01/31 10:01:38;;;;;;;2.92;2.75;;;8.80;99.90;;;;;;4956440;29;20497;-80
2024/01/31 10:04:06;;;;;;;2.75;2.63;;;8.70;99.90;;;;;;4952625;28;20208;-79
2024/01/31 10:06:33;;;;;;;1.08;1.08;;;8.70;99.90;;;;;;4960457;28;20204;-79
2024/01/31 10:09:02;;;;;;;1.48;1.48;;;8.50;99.90;;;;;;4953123;28;20255;-80
2024/01/31 10:11:31;;;;;;;4.25;1.88;;;8.30;99.90;;;;;;4953993;28;20215;-80
2024/01/31 10:13:58;;;;;;;3.55;2.63;;;8.20;99.90;;;;;;4960080;28;20207;-79
2024/01/31 10:16:26;;;;;;;1.88;1.77;;;8.00;99.90;;;;;;4969744;28;20207;-80
2024/01/31 10:18:53;;;;;;;0.70;0.70;;;7.90;99.90;;;;;;4959379;28;20211;-79
2024/01/31 10:21:21;;;;;;;1.85;1.80;;;7.80;99.90;;;;;;4952391;29;20195;-80
2024/01/31 10:23:58;;;;;;;1.73;1.63;;;7.80;99.90;;;;;;4955230;28;20206;-78
2024/01/31 10:26:26;;;;;;;3.72;3.22;;;7.70;99.90;;;;;;4956747;28;20270;-77
2024/01/31 10:28:55;;;;;;;2.58;2.47;;;7.60;99.90;;;;;;4954287;28;20233;-80
2024/01/31 10:31:35;;;;;;;6.93;6.53;;;7.60;99.90;;;;;;4955258;28;20233;-79
2024/01/31 10:34:03;;;;;;;1.27;1.27;;;7.60;99.90;;;;;;4968635;29;20207;-79
2024/01/31 10:36:31;;;;;;;1.80;1.70;;;7.60;99.90;;;;;;4962830;29;20556;-78
2024/01/31 10:39:02;;;;;;;1.10;1.10;;;7.60;99.90;;;;;;4957867;28;20200;-78
2024/01/31 10:41:31;;;;;;;2.42;2.33;;;7.70;99.90;;;;;;4959989;28;20234;-78
2024/01/31 10:44:02;;;;;;;2.35;2.25;;;7.70;99.90;;;;;;4958074;28;20207;-78
2024/01/31 10:46:29;;;;;;;2.42;2.30;;;7.70;99.90;;;;;;4953129;28;20215;-79
2024/01/31 10:48:56;;;;;;;1.33;1.33;;;7.70;99.90;;;;;;4948031;29;20210;-79
2024/01/31 10:51:24;;;;;;;4.55;4.10;;;7.70;99.90;;;;;;4939527;28;20218;-79
2024/01/31 10:53:52;;;;;;;2.28;2.15;;;7.80;99.90;;;;;;4985016;28;20226;-80
2024/01/31 10:56:20;;;;;;;2.35;2.25;;;7.90;99.90;;;;;;4963021;28;20294;-78
2024/01/31 10:58:51;;;;;;;0.63;0.63;;;8.10;99.90;;;;;;4963032;28;20429;-81
2024/01/31 11:01:19;;;;;;;1.80;1.70;;;8.20;99.90;;;;;;4955630;28;20231;-78
2024/01/31 11:03:46;;;;;;;3.05;2.85;;;8.10;99.90;;;;;;4967830;29;20211;-79
2024/01/31 11:06:13;;;;;;;1.05;1.05;;;8.20;99.90;;;;;;4978964;28;20241;-82
2024/01/31 11:08:41;;;;;;;1.25;1.25;;;8.10;99.90;;;;;;4963576;28;20539;-82
2024/01/31 11:11:11;;;;;;;2.75;2.65;;;8.10;99.90;;;;;;4961562;28;20211;-81
2024/01/31 11:13:38;;;;;;;1.60;1.52;;;8.10;99.90;;;;;;4949140;28;20268;-80
2024/01/31 11:16:05;;;;;;;0.90;0.90;;;8.10;99.90;;;;;;4966335;28;20551;-82
2024/01/31 11:18:38;;;;;;;1.20;1.20;;;8.10;99.90;;;;;;4966842;28;20202;-80
2024/01/31 11:21:10;;;;;;;1.73;1.67;;;8.20;99.90;;;;;;4952653;28;20196;-80
2024/01/31 11:23:39;;;;;;;1.00;1.00;;;8.20;99.90;;;;;;4947508;28;20282;-81
2024/01/31 11:26:08;;;;;;;1.05;1.05;;;8.20;99.90;;;;;;4956498;28;20207;-81
2024/01/31 11:28:41;;;;;;;1.80;1.70;;;8.10;99.90;;;;;;4952738;28;20203;-81
2024/01/31 11:31:08;;;;;;;0.80;0.80;;;8.10;99.90;;;;;;4953276;29;20247;-80
2024/01/31 11:33:35;;;;;;;0.60;0.60;;;8.40;99.90;;;;;;4965610;28;20266;-80
2024/01/31 11:36:02;;;;;;;1.13;1.13;;;8.30;99.90;;;;;;4942908;29;20227;-80
2024/01/31 11:38:29;;;;;;;2.55;2.35;;;8.40;99.90;;;;;;4953278;28;20211;-79
2024/01/31 11:40:57;;;;;;;2.45;2.35;;;8.50;99.90;;;;;;4947078;29;20228;-79
2024/01/31 11:43:24;;;;;;;3.05;2.85;;;8.70;99.90;;;;;;4950988;28;20210;-78
2024/01/31 11:45:51;;;;;;;0.85;0.85;;;8.70;99.90;;;;;;4953637;28;20551;-82
2024/01/31 11:48:19;;;;;;;1.55;1.45;;;8.80;99.90;;;;;;4964597;28;20234;-83
2024/01/31 11:50:46;;;;;;;1.75;1.50;;;8.80;99.90;;;;;;4973223;28;20191;-80
2024/01/31 11:53:13;;;;;;;0.80;0.80;;;8.60;99.90;;;;;;4968981;28;20200;-82
2024/01/31 11:55:40;;;;;;;1.25;1.25;;;8.60;99.90;;;;;;4977693;28;20223;-78
2024/01/31 11:58:07;;;;;;;0.90;0.90;;;8.80;99.90;;;;;;4944081;29;20496;-81
2024/01/31 12:00:36;;;;;;;1.00;1.00;;;8.60;99.90;;;;;;4962650;28;20270;-80
2024/01/31 12:03:04;;;;;;;1.88;1.85;;;8.60;99.90;;;;;;4969660;28;20498;-81
2024/01/31 12:05:31;;;;;;;0.80;0.80;;;8.50;99.90;;;;;;4946856;29;20211;-78
2024/01/31 12:07:58;;;;;;;2.45;1.50;;;8.40;99.90;;;;;;4955443;28;20483;-77
2024/01/31 12:10:27;;;;;;;1.00;1.00;;;8.40;99.90;;;;;;4970255;28;20207;-80
2024/01/31 12:12:57;;;;;;;0.90;0.90;;;8.30;99.90;;;;;;4951877;28;20199;-81
2024/01/31 12:15:26;;;;;;;0.60;0.60;;;8.30;99.90;;;;;;4953201;28;20251;-78
2024/01/31 12:17:54;;;;;;;0.60;0.60;;;8.20;99.90;;;;;;4961900;28;20246;-78
2024/01/31 12:20:21;;;;;;;1.45;1.45;;;8.20;99.90;;;;;;4950640;28;20208;-83
2024/01/31 12:22:48;;;;;;;0.65;0.65;;;8.40;99.90;;;;;;4958010;28;20263;-81
2024/01/31 12:25:16;;;;;;;0.60;0.60;;;8.50;99.90;;;;;;4956346;28;20228;-82
2024/01/31 12:27:43;;;;;;;0.85;0.85;;;8.60;99.90;;;;;;4937865;28;20203;-83
2024/01/31 12:30:11;;;;;;;1.42;1.42;;;8.50;99.90;;;;;;4952863;28;20199;-81
2024/01/31 12:32:38;;;;;;;2.15;2.05;;;8.50;99.90;;;;;;4955301;29;20207;-80
2024/01/31 12:35:05;;;;;;;0.60;0.60;;;8.50;99.90;;;;;;4963468;28;20237;-81
2024/01/31 12:37:33;;;;;;;0.88;0.88;;;8.50;99.90;;;;;;4964098;28;20218;-81
2024/01/31 12:40:00;;;;;;;0.50;0.50;;;8.40;99.90;;;;;;4954553;28;20219;-78
2024/01/31 12:42:28;;;;;;;1.05;1.05;;;8.40;99.90;;;;;;4953792;28;20203;-79
2024/01/31 12:44:56;;;;;;;0.60;0.60;;;8.40;99.90;;;;;;4942150;29;20520;-81
2024/01/31 12:47:24;;;;;;;1.98;1.90;;;8.40;99.90;;;;;;4958077;28;20214;-80
2024/01/31 12:49:51;;;;;;;0.60;0.60;;;8.50;99.90;;;;;;4964810;28;20217;-79
2024/01/31 12:52:21;;;;;;;1.02;1.02;;;8.40;99.90;;;;;;4950299;28;20418;-80
2024/01/31 12:54:48;;;;;;;4.88;3.92;;;8.40;99.90;;;;;;4959182;28;20227;-83
2024/01/31 12:57:17;;;;;;;2.17;2.03;;;8.30;99.90;;;;;;4960386;28;20211;-80
2024/01/31 12:59:46;;;;;;;1.13;1.13;;;8.30;99.90;;;;;;4960697;28;20210;-81